sensor_id;sensor_type;location;lat;lon;timestamp;P1;durP1;ratioP1;P2;durP2;ratioP2
44862;SDS011;30597;49.628;10.850;2023-05-07T00:01:49;1.10;;;1.00;;
44862;SDS011;30597;49.628;10.850;2023-05-07T00:04:14;3.10;;;1.33;;
44862;SDS011;30597;49.628;10.850;2023-05-07T00:06:40;1.40;;;1.30;;
44862;SDS011;30597;49.628;10.850;2023-05-07T00:09:06;1.70;;;1.60;;
44862;SDS011;30597;49.628;10.850;2023-05-07T00:11:31;4.20;;;1.30;;
44862;SDS011;30597;49.628;10.850;2023-05-07T00:13:58;2.03;;;1.30;;
44862;SDS011;30597;49.628;10.850;2023-05-07T00:16:24;2.90;;;1.10;;
44862;SDS011;30597;49.628;10.850;2023-05-07T00:18:49;1.97;;;1.70;;
44862;SDS011;30597;49.628;10.850;2023-05-07T00:21:15;2.27;;;1.40;;
44862;SDS011;30597;49.628;10.850;2023-05-07T00:23:41;3.43;;;1.30;;
44862;SDS011;30597;49.628;10.850;2023-05-07T00:26:06;1.83;;;1.20;;
44862;SDS011;30597;49.628;10.850;2023-05-07T00:28:32;4.70;;;1.60;;
44862;SDS011;30597;49.628;10.850;2023-05-07T00:30:57;2.97;;;1.40;;
44862;SDS011;30597;49.628;10.850;2023-05-07T00:33:23;2.93;;;1.40;;
44862;SDS011;30597;49.628;10.850;2023-05-07T00:35:48;1.40;;;1.30;;
44862;SDS011;30597;49.628;10.850;2023-05-07T00:38:14;1.57;;;1.37;;
44862;SDS011;30597;49.628;10.850;2023-05-07T00:40:40;1.43;;;1.33;;
44862;SDS011;30597;49.628;10.850;2023-05-07T00:43:05;2.87;;;1.33;;
44862;SDS011;30597;49.628;10.850;2023-05-07T00:45:32;3.33;;;1.90;;
44862;SDS011;30597;49.628;10.850;2023-05-07T00:47:59;1.70;;;1.50;;
44862;SDS011;30597;49.628;10.850;2023-05-07T00:50:28;1.50;;;1.27;;
44862;SDS011;30597;49.628;10.850;2023-05-07T00:52:55;1.20;;;1.10;;
44862;SDS011;30597;49.628;10.850;2023-05-07T00:55:21;1.80;;;1.43;;
44862;SDS011;30597;49.628;10.850;2023-05-07T00:57:48;1.77;;;1.00;;
44862;SDS011;30597;49.628;10.850;2023-05-07T01:00:15;3.17;;;1.63;;
44862;SDS011;30597;49.628;10.850;2023-05-07T01:02:42;1.40;;;1.23;;
44862;SDS011;30597;49.628;10.850;2023-05-07T01:05:09;4.17;;;1.43;;
44862;SDS011;30597;49.628;10.850;2023-05-07T01:07:37;2.50;;;1.40;;
44862;SDS011;30597;49.628;10.850;2023-05-07T01:10:05;2.93;;;1.10;;
44862;SDS011;30597;49.628;10.850;2023-05-07T01:12:32;1.93;;;1.07;;
44862;SDS011;30597;49.628;10.850;2023-05-07T01:14:58;2.37;;;0.97;;
44862;SDS011;30597;49.628;10.850;2023-05-07T01:17:23;2.07;;;1.43;;
44862;SDS011;30597;49.628;10.850;2023-05-07T01:19:49;2.47;;;1.13;;
44862;SDS011;30597;49.628;10.850;2023-05-07T01:22:16;1.50;;;1.17;;
44862;SDS011;30597;49.628;10.850;2023-05-07T01:24:45;2.20;;;1.23;;
44862;SDS011;30597;49.628;10.850;2023-05-07T01:27:11;1.33;;;1.17;;
44862;SDS011;30597;49.628;10.850;2023-05-07T01:29:37;2.00;;;1.40;;
44862;SDS011;30597;49.628;10.850;2023-05-07T01:32:02;1.13;;;1.03;;
44862;SDS011;30597;49.628;10.850;2023-05-07T01:34:30;1.27;;;1.13;;
44862;SDS011;30597;49.628;10.850;2023-05-07T01:36:57;1.83;;;1.30;;
44862;SDS011;30597;49.628;10.850;2023-05-07T01:39:25;1.33;;;1.23;;
44862;SDS011;30597;49.628;10.850;2023-05-07T01:41:53;1.10;;;0.97;;
44862;SDS011;30597;49.628;10.850;2023-05-07T01:44:20;1.10;;;1.00;;
44862;SDS011;30597;49.628;10.850;2023-05-07T01:46:46;1.33;;;1.10;;
44862;SDS011;30597;49.628;10.850;2023-05-07T01:49:13;1.40;;;1.20;;
44862;SDS011;30597;49.628;10.850;2023-05-07T01:51:39;1.90;;;0.90;;
44862;SDS011;30597;49.628;10.850;2023-05-07T01:54:05;1.10;;;1.00;;
44862;SDS011;30597;49.628;10.850;2023-05-07T01:56:31;2.70;;;1.03;;
44862;SDS011;30597;49.628;10.850;2023-05-07T01:58:57;1.33;;;1.23;;
44862;SDS011;30597;49.628;10.850;2023-05-07T02:01:22;1.57;;;0.83;;
44862;SDS011;30597;49.628;10.850;2023-05-07T02:03:48;0.90;;;0.70;;
44862;SDS011;30597;49.628;10.850;2023-05-07T02:06:14;1.20;;;1.10;;
44862;SDS011;30597;49.628;10.850;2023-05-07T02:08:39;1.40;;;1.30;;
44862;SDS011;30597;49.628;10.850;2023-05-07T02:11:05;0.90;;;0.80;;
44862;SDS011;30597;49.628;10.850;2023-05-07T02:13:31;1.77;;;1.20;;
44862;SDS011;30597;49.628;10.850;2023-05-07T02:15:58;1.30;;;1.20;;
44862;SDS011;30597;49.628;10.850;2023-05-07T02:18:24;2.77;;;1.00;;
44862;SDS011;30597;49.628;10.850;2023-05-07T02:20:49;1.40;;;1.30;;
44862;SDS011;30597;49.628;10.850;2023-05-07T02:23:15;1.30;;;1.20;;
44862;SDS011;30597;49.628;10.850;2023-05-07T02:25:40;1.30;;;1.10;;
44862;SDS011;30597;49.628;10.850;2023-05-07T02:28:06;2.07;;;1.47;;
44862;SDS011;30597;49.628;10.850;2023-05-07T02:30:31;1.57;;;1.30;;
44862;SDS011;30597;49.628;10.850;2023-05-07T02:32:58;1.90;;;1.23;;
44862;SDS011;30597;49.628;10.850;2023-05-07T02:35:26;1.20;;;1.10;;
44862;SDS011;30597;49.628;10.850;2023-05-07T02:37:52;1.50;;;1.20;;
44862;SDS011;30597;49.628;10.850;2023-05-07T02:40:17;1.53;;;1.23;;
44862;SDS011;30597;49.628;10.850;2023-05-07T02:42:43;1.60;;;1.50;;
44862;SDS011;30597;49.628;10.850;2023-05-07T02:45:08;1.17;;;0.90;;
44862;SDS011;30597;49.628;10.850;2023-05-07T02:47:34;1.30;;;1.20;;
44862;SDS011;30597;49.628;10.850;2023-05-07T02:50:00;0.90;;;0.90;;
44862;SDS011;30597;49.628;10.850;2023-05-07T02:52:26;1.10;;;1.00;;
44862;SDS011;30597;49.628;10.850;2023-05-07T02:54:51;1.70;;;0.90;;
44862;SDS011;30597;49.628;10.850;2023-05-07T02:57:17;1.67;;;1.50;;
44862;SDS011;30597;49.628;10.850;2023-05-07T02:59:42;1.30;;;1.20;;
44862;SDS011;30597;49.628;10.850;2023-05-07T03:02:08;1.40;;;1.30;;
44862;SDS011;30597;49.628;10.850;2023-05-07T03:04:33;1.20;;;1.10;;
44862;SDS011;30597;49.628;10.850;2023-05-07T03:06:59;1.20;;;1.00;;
44862;SDS011;30597;49.628;10.850;2023-05-07T03:09:25;1.10;;;1.00;;
44862;SDS011;30597;49.628;10.850;2023-05-07T03:11:51;1.67;;;1.17;;
44862;SDS011;30597;49.628;10.850;2023-05-07T03:14:16;1.33;;;1.23;;
44862;SDS011;30597;49.628;10.850;2023-05-07T03:16:42;1.43;;;1.00;;
44862;SDS011;30597;49.628;10.850;2023-05-07T03:19:07;1.37;;;1.03;;
44862;SDS011;30597;49.628;10.850;2023-05-07T03:21:33;1.20;;;1.10;;
44862;SDS011;30597;49.628;10.850;2023-05-07T03:23:59;2.40;;;1.30;;
44862;SDS011;30597;49.628;10.850;2023-05-07T03:26:25;1.20;;;1.10;;
44862;SDS011;30597;49.628;10.850;2023-05-07T03:28:51;1.23;;;1.13;;
44862;SDS011;30597;49.628;10.850;2023-05-07T03:31:17;1.20;;;1.10;;
44862;SDS011;30597;49.628;10.850;2023-05-07T03:33:53;1.40;;;1.30;;
44862;SDS011;30597;49.628;10.850;2023-05-07T03:36:20;1.30;;;1.20;;
44862;SDS011;30597;49.628;10.850;2023-05-07T03:38:46;1.60;;;1.40;;
44862;SDS011;30597;49.628;10.850;2023-05-07T03:41:12;1.30;;;1.20;;
44862;SDS011;30597;49.628;10.850;2023-05-07T03:43:38;2.00;;;1.17;;
44862;SDS011;30597;49.628;10.850;2023-05-07T03:46:04;1.10;;;1.00;;
44862;SDS011;30597;49.628;10.850;2023-05-07T03:48:29;1.20;;;1.00;;
44862;SDS011;30597;49.628;10.850;2023-05-07T03:50:55;1.13;;;1.03;;
44862;SDS011;30597;49.628;10.850;2023-05-07T03:53:22;1.40;;;1.30;;
44862;SDS011;30597;49.628;10.850;2023-05-07T03:55:47;1.13;;;1.03;;
44862;SDS011;30597;49.628;10.850;2023-05-07T03:58:13;1.00;;;0.90;;
44862;SDS011;30597;49.628;10.850;2023-05-07T04:00:38;1.30;;;1.13;;
44862;SDS011;30597;49.628;10.850;2023-05-07T04:03:05;1.30;;;1.20;;
44862;SDS011;30597;49.628;10.850;2023-05-07T04:05:31;1.27;;;1.17;;
44862;SDS011;30597;49.628;10.850;2023-05-07T04:07:59;0.97;;;0.87;;
44862;SDS011;30597;49.628;10.850;2023-05-07T04:10:26;1.30;;;1.20;;
44862;SDS011;30597;49.628;10.850;2023-05-07T04:12:53;1.27;;;1.17;;
44862;SDS011;30597;49.628;10.850;2023-05-07T04:15:18;0.97;;;0.90;;
44862;SDS011;30597;49.628;10.850;2023-05-07T04:17:44;1.23;;;1.13;;
44862;SDS011;30597;49.628;10.850;2023-05-07T04:20:10;1.00;;;0.87;;
44862;SDS011;30597;49.628;10.850;2023-05-07T04:22:38;1.03;;;0.90;;
44862;SDS011;30597;49.628;10.850;2023-05-07T04:25:04;1.53;;;1.43;;
44862;SDS011;30597;49.628;10.850;2023-05-07T04:27:30;1.60;;;1.17;;
44862;SDS011;30597;49.628;10.850;2023-05-07T04:29:56;1.13;;;1.00;;
44862;SDS011;30597;49.628;10.850;2023-05-07T04:32:22;1.50;;;0.90;;
44862;SDS011;30597;49.628;10.850;2023-05-07T04:34:49;1.00;;;0.90;;
44862;SDS011;30597;49.628;10.850;2023-05-07T04:37:15;1.10;;;1.00;;
44862;SDS011;30597;49.628;10.850;2023-05-07T04:39:41;1.40;;;1.30;;
44862;SDS011;30597;49.628;10.850;2023-05-07T04:42:06;1.63;;;0.90;;
44862;SDS011;30597;49.628;10.850;2023-05-07T04:44:34;1.30;;;1.17;;
44862;SDS011;30597;49.628;10.850;2023-05-07T04:47:00;1.30;;;1.10;;
44862;SDS011;30597;49.628;10.850;2023-05-07T04:49:25;1.10;;;1.00;;
44862;SDS011;30597;49.628;10.850;2023-05-07T04:51:51;0.80;;;0.80;;
44862;SDS011;30597;49.628;10.850;2023-05-07T04:54:17;1.67;;;1.20;;
44862;SDS011;30597;49.628;10.850;2023-05-07T04:56:42;1.20;;;1.10;;
44862;SDS011;30597;49.628;10.850;2023-05-07T04:59:08;0.80;;;0.80;;
44862;SDS011;30597;49.628;10.850;2023-05-07T05:01:33;0.90;;;0.90;;
44862;SDS011;30597;49.628;10.850;2023-05-07T05:03:59;1.07;;;0.97;;
44862;SDS011;30597;49.628;10.850;2023-05-07T05:06:25;2.17;;;1.10;;
44862;SDS011;30597;49.628;10.850;2023-05-07T05:08:51;1.20;;;1.10;;
44862;SDS011;30597;49.628;10.850;2023-05-07T05:11:17;1.33;;;1.23;;
44862;SDS011;30597;49.628;10.850;2023-05-07T05:13:42;1.37;;;0.80;;
44862;SDS011;30597;49.628;10.850;2023-05-07T05:16:08;1.10;;;0.90;;
44862;SDS011;30597;49.628;10.850;2023-05-07T05:18:34;1.20;;;1.00;;
44862;SDS011;30597;49.628;10.850;2023-05-07T05:20:59;0.80;;;0.80;;
44862;SDS011;30597;49.628;10.850;2023-05-07T05:23:25;1.43;;;1.30;;
44862;SDS011;30597;49.628;10.850;2023-05-07T05:25:55;1.03;;;0.93;;
44862;SDS011;30597;49.628;10.850;2023-05-07T05:28:21;1.00;;;0.73;;
44862;SDS011;30597;49.628;10.850;2023-05-07T05:30:47;1.07;;;0.97;;
44862;SDS011;30597;49.628;10.850;2023-05-07T05:33:12;4.50;;;1.03;;
44862;SDS011;30597;49.628;10.850;2023-05-07T05:35:38;1.40;;;0.80;;
44862;SDS011;30597;49.628;10.850;2023-05-07T05:38:03;2.53;;;1.00;;
44862;SDS011;30597;49.628;10.850;2023-05-07T05:40:29;1.40;;;1.03;;
44862;SDS011;30597;49.628;10.850;2023-05-07T05:42:54;2.07;;;1.20;;
44862;SDS011;30597;49.628;10.850;2023-05-07T05:45:20;3.50;;;1.20;;
44862;SDS011;30597;49.628;10.850;2023-05-07T05:47:45;2.00;;;1.10;;
44862;SDS011;30597;49.628;10.850;2023-05-07T05:50:11;5.60;;;1.30;;
44862;SDS011;30597;49.628;10.850;2023-05-07T05:52:37;2.50;;;0.93;;
44862;SDS011;30597;49.628;10.850;2023-05-07T05:55:03;2.60;;;1.10;;
44862;SDS011;30597;49.628;10.850;2023-05-07T05:57:29;1.63;;;1.30;;
44862;SDS011;30597;49.628;10.850;2023-05-07T05:59:55;2.10;;;1.20;;
44862;SDS011;30597;49.628;10.850;2023-05-07T06:02:21;1.17;;;1.00;;
44862;SDS011;30597;49.628;10.850;2023-05-07T06:04:46;2.50;;;1.00;;
44862;SDS011;30597;49.628;10.850;2023-05-07T06:07:12;2.53;;;1.30;;
44862;SDS011;30597;49.628;10.850;2023-05-07T06:09:37;1.10;;;1.00;;
44862;SDS011;30597;49.628;10.850;2023-05-07T06:12:03;1.50;;;1.40;;
44862;SDS011;30597;49.628;10.850;2023-05-07T06:14:28;2.43;;;1.33;;
44862;SDS011;30597;49.628;10.850;2023-05-07T06:16:54;2.00;;;1.30;;
44862;SDS011;30597;49.628;10.850;2023-05-07T06:19:20;1.70;;;1.50;;
44862;SDS011;30597;49.628;10.850;2023-05-07T06:21:48;1.60;;;1.33;;
44862;SDS011;30597;49.628;10.850;2023-05-07T06:24:14;3.07;;;1.47;;
44862;SDS011;30597;49.628;10.850;2023-05-07T06:26:40;2.00;;;1.43;;
44862;SDS011;30597;49.628;10.850;2023-05-07T06:29:05;1.83;;;1.43;;
44862;SDS011;30597;49.628;10.850;2023-05-07T06:31:31;2.60;;;1.60;;
44862;SDS011;30597;49.628;10.850;2023-05-07T06:33:57;3.87;;;1.47;;
44862;SDS011;30597;49.628;10.850;2023-05-07T06:36:24;1.70;;;1.30;;
44862;SDS011;30597;49.628;10.850;2023-05-07T06:38:49;1.97;;;1.50;;
44862;SDS011;30597;49.628;10.850;2023-05-07T06:41:15;1.67;;;1.30;;
44862;SDS011;30597;49.628;10.850;2023-05-07T06:43:40;1.63;;;1.20;;
44862;SDS011;30597;49.628;10.850;2023-05-07T06:46:06;2.00;;;1.30;;
44862;SDS011;30597;49.628;10.850;2023-05-07T06:48:35;2.10;;;1.50;;
44862;SDS011;30597;49.628;10.850;2023-05-07T06:51:07;3.43;;;1.40;;
44862;SDS011;30597;49.628;10.850;2023-05-07T06:53:32;1.53;;;1.33;;
44862;SDS011;30597;49.628;10.850;2023-05-07T06:56:00;1.53;;;1.40;;
44862;SDS011;30597;49.628;10.850;2023-05-07T06:58:26;1.40;;;1.30;;
44862;SDS011;30597;49.628;10.850;2023-05-07T07:00:51;1.47;;;1.37;;
44862;SDS011;30597;49.628;10.850;2023-05-07T07:03:17;1.17;;;1.07;;
44862;SDS011;30597;49.628;10.850;2023-05-07T07:05:42;2.00;;;1.50;;
44862;SDS011;30597;49.628;10.850;2023-05-07T07:08:08;2.80;;;1.60;;
44862;SDS011;30597;49.628;10.850;2023-05-07T07:10:34;2.03;;;1.37;;
44862;SDS011;30597;49.628;10.850;2023-05-07T07:13:00;1.90;;;1.50;;
44862;SDS011;30597;49.628;10.850;2023-05-07T07:15:25;1.83;;;1.47;;
44862;SDS011;30597;49.628;10.850;2023-05-07T07:17:51;1.33;;;1.23;;
44862;SDS011;30597;49.628;10.850;2023-05-07T07:20:18;2.00;;;1.80;;
44862;SDS011;30597;49.628;10.850;2023-05-07T07:22:46;1.63;;;1.53;;
44862;SDS011;30597;49.628;10.850;2023-05-07T07:25:12;1.77;;;1.67;;
44862;SDS011;30597;49.628;10.850;2023-05-07T07:27:38;2.30;;;1.70;;
44862;SDS011;30597;49.628;10.850;2023-05-07T07:30:05;2.17;;;1.97;;
44862;SDS011;30597;49.628;10.850;2023-05-07T07:32:31;1.63;;;1.53;;
44862;SDS011;30597;49.628;10.850;2023-05-07T07:34:58;1.60;;;1.50;;
44862;SDS011;30597;49.628;10.850;2023-05-07T07:37:23;1.50;;;1.37;;
44862;SDS011;30597;49.628;10.850;2023-05-07T07:39:50;1.80;;;1.40;;
44862;SDS011;30597;49.628;10.850;2023-05-07T07:42:16;1.80;;;1.50;;
44862;SDS011;30597;49.628;10.850;2023-05-07T07:44:41;1.87;;;1.77;;
44862;SDS011;30597;49.628;10.850;2023-05-07T07:47:07;2.10;;;1.90;;
44862;SDS011;30597;49.628;10.850;2023-05-07T07:49:32;1.70;;;1.60;;
44862;SDS011;30597;49.628;10.850;2023-05-07T07:51:58;2.00;;;1.87;;
44862;SDS011;30597;49.628;10.850;2023-05-07T07:54:24;2.00;;;1.70;;
44862;SDS011;30597;49.628;10.850;2023-05-07T07:56:50;2.43;;;2.00;;
44862;SDS011;30597;49.628;10.850;2023-05-07T07:59:15;1.90;;;1.80;;
44862;SDS011;30597;49.628;10.850;2023-05-07T08:01:43;1.53;;;1.43;;
44862;SDS011;30597;49.628;10.850;2023-05-07T08:04:09;1.70;;;1.60;;
44862;SDS011;30597;49.628;10.850;2023-05-07T08:06:35;1.53;;;1.43;;
44862;SDS011;30597;49.628;10.850;2023-05-07T08:09:00;3.20;;;1.70;;
44862;SDS011;30597;49.628;10.850;2023-05-07T08:11:27;2.13;;;1.97;;
44862;SDS011;30597;49.628;10.850;2023-05-07T08:13:53;1.80;;;1.70;;
44862;SDS011;30597;49.628;10.850;2023-05-07T08:16:19;1.97;;;1.77;;
44862;SDS011;30597;49.628;10.850;2023-05-07T08:18:45;1.80;;;1.70;;
44862;SDS011;30597;49.628;10.850;2023-05-07T08:21:10;2.10;;;1.90;;
44862;SDS011;30597;49.628;10.850;2023-05-07T08:23:36;2.13;;;1.93;;
44862;SDS011;30597;49.628;10.850;2023-05-07T08:26:02;3.93;;;3.50;;
44862;SDS011;30597;49.628;10.850;2023-05-07T08:28:27;4.13;;;3.33;;
44862;SDS011;30597;49.628;10.850;2023-05-07T08:30:53;3.87;;;3.23;;
44862;SDS011;30597;49.628;10.850;2023-05-07T08:33:18;4.00;;;3.47;;
44862;SDS011;30597;49.628;10.850;2023-05-07T08:35:44;4.20;;;3.60;;
44862;SDS011;30597;49.628;10.850;2023-05-07T08:38:09;3.83;;;3.53;;
44862;SDS011;30597;49.628;10.850;2023-05-07T08:40:38;4.37;;;3.97;;
44862;SDS011;30597;49.628;10.850;2023-05-07T08:43:05;4.60;;;4.10;;
44862;SDS011;30597;49.628;10.850;2023-05-07T08:45:32;4.30;;;3.90;;
44862;SDS011;30597;49.628;10.850;2023-05-07T08:47:59;5.40;;;4.20;;
44862;SDS011;30597;49.628;10.850;2023-05-07T08:50:28;4.93;;;3.77;;
44862;SDS011;30597;49.628;10.850;2023-05-07T08:52:54;4.53;;;4.00;;
44862;SDS011;30597;49.628;10.850;2023-05-07T08:55:21;3.60;;;3.40;;
44862;SDS011;30597;49.628;10.850;2023-05-07T08:57:47;4.37;;;3.50;;
44862;SDS011;30597;49.628;10.850;2023-05-07T09:00:13;3.73;;;3.53;;
44862;SDS011;30597;49.628;10.850;2023-05-07T09:02:39;4.03;;;3.67;;
44862;SDS011;30597;49.628;10.850;2023-05-07T09:05:05;4.50;;;4.10;;
44862;SDS011;30597;49.628;10.850;2023-05-07T09:07:31;6.00;;;4.50;;
44862;SDS011;30597;49.628;10.850;2023-05-07T09:09:57;4.30;;;3.90;;
44862;SDS011;30597;49.628;10.850;2023-05-07T09:12:23;3.80;;;3.50;;
44862;SDS011;30597;49.628;10.850;2023-05-07T09:14:49;3.73;;;3.43;;
44862;SDS011;30597;49.628;10.850;2023-05-07T09:17:15;3.80;;;3.50;;
44862;SDS011;30597;49.628;10.850;2023-05-07T09:19:42;3.77;;;3.47;;
44862;SDS011;30597;49.628;10.850;2023-05-07T09:22:09;4.30;;;3.80;;
44862;SDS011;30597;49.628;10.850;2023-05-07T09:24:35;4.37;;;3.97;;
44862;SDS011;30597;49.628;10.850;2023-05-07T09:27:03;5.30;;;3.60;;
44862;SDS011;30597;49.628;10.850;2023-05-07T09:29:33;3.83;;;3.47;;
44862;SDS011;30597;49.628;10.850;2023-05-07T09:32:01;4.87;;;4.47;;
44862;SDS011;30597;49.628;10.850;2023-05-07T09:34:29;4.17;;;3.50;;
44862;SDS011;30597;49.628;10.850;2023-05-07T09:36:55;4.10;;;3.70;;
44862;SDS011;30597;49.628;10.850;2023-05-07T09:39:21;3.43;;;3.23;;
44862;SDS011;30597;49.628;10.850;2023-05-07T09:41:48;5.63;;;5.17;;
44862;SDS011;30597;49.628;10.850;2023-05-07T09:44:16;6.63;;;5.70;;
44862;SDS011;30597;49.628;10.850;2023-05-07T09:46:42;9.23;;;8.63;;
44862;SDS011;30597;49.628;10.850;2023-05-07T09:49:18;8.70;;;7.90;;
44862;SDS011;30597;49.628;10.850;2023-05-07T09:51:50;8.40;;;7.70;;
44862;SDS011;30597;49.628;10.850;2023-05-07T09:54:17;8.40;;;7.57;;
44862;SDS011;30597;49.628;10.850;2023-05-07T09:56:44;8.70;;;7.90;;
44862;SDS011;30597;49.628;10.850;2023-05-07T09:59:10;7.73;;;7.13;;
44862;SDS011;30597;49.628;10.850;2023-05-07T10:01:38;8.13;;;7.47;;
44862;SDS011;30597;49.628;10.850;2023-05-07T10:04:09;7.47;;;6.87;;
44862;SDS011;30597;49.628;10.850;2023-05-07T10:06:35;8.40;;;7.70;;
44862;SDS011;30597;49.628;10.850;2023-05-07T10:09:02;7.10;;;6.60;;
44862;SDS011;30597;49.628;10.850;2023-05-07T10:11:30;6.57;;;6.07;;
44862;SDS011;30597;49.628;10.850;2023-05-07T10:14:00;7.23;;;6.43;;
44862;SDS011;30597;49.628;10.850;2023-05-07T10:16:35;6.90;;;6.20;;
44862;SDS011;30597;49.628;10.850;2023-05-07T10:19:02;6.50;;;6.00;;
44862;SDS011;30597;49.628;10.850;2023-05-07T10:21:29;6.63;;;6.13;;
44862;SDS011;30597;49.628;10.850;2023-05-07T10:24:00;6.50;;;6.00;;
44862;SDS011;30597;49.628;10.850;2023-05-07T10:26:35;7.70;;;7.00;;
44862;SDS011;30597;49.628;10.850;2023-05-07T10:29:06;6.90;;;6.30;;
44862;SDS011;30597;49.628;10.850;2023-05-07T10:31:55;6.17;;;5.67;;
44862;SDS011;30597;49.628;10.850;2023-05-07T10:34:45;6.37;;;5.87;;
44862;SDS011;30597;49.628;10.850;2023-05-07T10:37:14;7.00;;;5.90;;
44862;SDS011;30597;49.628;10.850;2023-05-07T10:39:40;6.60;;;6.07;;
44862;SDS011;30597;49.628;10.850;2023-05-07T10:42:13;6.30;;;5.70;;
44862;SDS011;30597;49.628;10.850;2023-05-07T10:44:39;5.97;;;5.37;;
44862;SDS011;30597;49.628;10.850;2023-05-07T10:47:11;5.70;;;5.30;;
44862;SDS011;30597;49.628;10.850;2023-05-07T10:52:14;6.90;;;5.60;;
44862;SDS011;30597;49.628;10.850;2023-05-07T10:54:41;7.13;;;6.43;;
44862;SDS011;30597;49.628;10.850;2023-05-07T10:57:50;5.77;;;5.27;;
44862;SDS011;30597;49.628;10.850;2023-05-07T11:00:03;5.83;;;5.43;;
44862;SDS011;30597;49.628;10.850;2023-05-07T11:05:30;4.87;;;4.57;;
44862;SDS011;30597;49.628;10.850;2023-05-07T11:08:00;5.60;;;5.10;;
44862;SDS011;30597;49.628;10.850;2023-05-07T11:13:17;5.73;;;5.33;;
44862;SDS011;30597;49.628;10.850;2023-05-07T11:16:03;5.80;;;5.40;;
44862;SDS011;30597;49.628;10.850;2023-05-07T11:18:45;5.30;;;4.90;;
44862;SDS011;30597;49.628;10.850;2023-05-07T11:22:00;5.17;;;4.50;;
44862;SDS011;30597;49.628;10.850;2023-05-07T11:24:05;5.77;;;5.27;;
44862;SDS011;30597;49.628;10.850;2023-05-07T11:26:45;6.00;;;5.50;;
44862;SDS011;30597;49.628;10.850;2023-05-07T11:29:12;5.37;;;4.47;;
44862;SDS011;30597;49.628;10.850;2023-05-07T11:31:40;5.20;;;4.70;;
44862;SDS011;30597;49.628;10.850;2023-05-07T11:34:06;4.83;;;4.43;;
44862;SDS011;30597;49.628;10.850;2023-05-07T11:36:32;5.63;;;5.23;;
44862;SDS011;30597;49.628;10.850;2023-05-07T11:38:58;4.87;;;4.47;;
44862;SDS011;30597;49.628;10.850;2023-05-07T11:41:34;4.93;;;4.53;;
44862;SDS011;30597;49.628;10.850;2023-05-07T11:44:01;4.80;;;4.40;;
44862;SDS011;30597;49.628;10.850;2023-05-07T11:46:27;4.47;;;4.17;;
44862;SDS011;30597;49.628;10.850;2023-05-07T11:48:54;4.97;;;4.60;;
44862;SDS011;30597;49.628;10.850;2023-05-07T11:51:20;5.13;;;4.63;;
44862;SDS011;30597;49.628;10.850;2023-05-07T11:53:48;6.00;;;4.37;;
44862;SDS011;30597;49.628;10.850;2023-05-07T11:56:15;5.00;;;4.50;;
44862;SDS011;30597;49.628;10.850;2023-05-07T11:58:42;4.97;;;4.50;;
44862;SDS011;30597;49.628;10.850;2023-05-07T12:01:09;4.70;;;4.00;;
44862;SDS011;30597;49.628;10.850;2023-05-07T12:03:36;4.30;;;3.90;;
44862;SDS011;30597;49.628;10.850;2023-05-07T12:06:02;4.00;;;3.70;;
44862;SDS011;30597;49.628;10.850;2023-05-07T12:08:30;5.07;;;4.60;;
44862;SDS011;30597;49.628;10.850;2023-05-07T12:10:56;4.17;;;3.77;;
44862;SDS011;30597;49.628;10.850;2023-05-07T12:13:23;4.23;;;3.83;;
44862;SDS011;30597;49.628;10.850;2023-05-07T12:15:53;4.40;;;4.10;;
44862;SDS011;30597;49.628;10.850;2023-05-07T12:18:21;4.27;;;3.70;;
44862;SDS011;30597;49.628;10.850;2023-05-07T12:20:47;4.10;;;3.30;;
44862;SDS011;30597;49.628;10.850;2023-05-07T12:23:14;3.50;;;3.20;;
44862;SDS011;30597;49.628;10.850;2023-05-07T12:25:40;3.57;;;3.27;;
44862;SDS011;30597;49.628;10.850;2023-05-07T12:28:43;3.90;;;3.50;;
44862;SDS011;30597;49.628;10.850;2023-05-07T12:31:09;4.07;;;3.77;;
44862;SDS011;30597;49.628;10.850;2023-05-07T12:33:36;3.40;;;3.20;;
44862;SDS011;30597;49.628;10.850;2023-05-07T12:36:05;4.10;;;3.47;;
44862;SDS011;30597;49.628;10.850;2023-05-07T12:38:37;4.37;;;3.97;;
44862;SDS011;30597;49.628;10.850;2023-05-07T12:41:04;4.00;;;3.60;;
44862;SDS011;30597;49.628;10.850;2023-05-07T12:43:32;3.23;;;2.93;;
44862;SDS011;30597;49.628;10.850;2023-05-07T12:45:59;5.50;;;3.57;;
44862;SDS011;30597;49.628;10.850;2023-05-07T12:48:27;3.50;;;3.20;;
44862;SDS011;30597;49.628;10.850;2023-05-07T12:50:53;4.03;;;3.70;;
44862;SDS011;30597;49.628;10.850;2023-05-07T12:53:20;3.80;;;3.50;;
44862;SDS011;30597;49.628;10.850;2023-05-07T12:55:48;4.40;;;3.50;;
44862;SDS011;30597;49.628;10.850;2023-05-07T12:58:16;4.80;;;3.50;;
44862;SDS011;30597;49.628;10.850;2023-05-07T13:00:43;3.30;;;3.00;;
44862;SDS011;30597;49.628;10.850;2023-05-07T13:03:10;4.20;;;3.33;;
44862;SDS011;30597;49.628;10.850;2023-05-07T13:05:36;4.73;;;3.47;;
44862;SDS011;30597;49.628;10.850;2023-05-07T13:08:02;3.20;;;3.00;;
44862;SDS011;30597;49.628;10.850;2023-05-07T13:10:27;3.17;;;2.80;;
44862;SDS011;30597;49.628;10.850;2023-05-07T13:12:53;2.87;;;2.67;;
44862;SDS011;30597;49.628;10.850;2023-05-07T13:15:19;3.33;;;3.03;;
44862;SDS011;30597;49.628;10.850;2023-05-07T13:17:45;3.27;;;3.07;;
44862;SDS011;30597;49.628;10.850;2023-05-07T13:20:14;3.93;;;3.53;;
44862;SDS011;30597;49.628;10.850;2023-05-07T13:22:47;3.23;;;3.03;;
44862;SDS011;30597;49.628;10.850;2023-05-07T13:25:16;3.70;;;3.40;;
44862;SDS011;30597;49.628;10.850;2023-05-07T13:27:41;3.43;;;3.20;;
44862;SDS011;30597;49.628;10.850;2023-05-07T13:30:07;3.43;;;3.13;;
44862;SDS011;30597;49.628;10.850;2023-05-07T13:32:35;2.93;;;2.73;;
44862;SDS011;30597;49.628;10.850;2023-05-07T13:35:01;3.57;;;3.27;;
44862;SDS011;30597;49.628;10.850;2023-05-07T13:37:26;3.53;;;3.23;;
44862;SDS011;30597;49.628;10.850;2023-05-07T13:39:52;3.83;;;3.53;;
44862;SDS011;30597;49.628;10.850;2023-05-07T13:42:18;3.07;;;2.77;;
44862;SDS011;30597;49.628;10.850;2023-05-07T13:44:43;3.50;;;3.20;;
44862;SDS011;30597;49.628;10.850;2023-05-07T13:47:09;3.50;;;3.20;;
44862;SDS011;30597;49.628;10.850;2023-05-07T13:49:35;3.20;;;2.90;;
44862;SDS011;30597;49.628;10.850;2023-05-07T13:52:01;6.00;;;3.40;;
44862;SDS011;30597;49.628;10.850;2023-05-07T13:54:27;3.07;;;2.87;;
44862;SDS011;30597;49.628;10.850;2023-05-07T13:56:52;3.80;;;3.50;;
44862;SDS011;30597;49.628;10.850;2023-05-07T13:59:18;3.90;;;3.60;;
44862;SDS011;30597;49.628;10.850;2023-05-07T14:01:43;5.00;;;3.47;;
44862;SDS011;30597;49.628;10.850;2023-05-07T14:04:09;3.10;;;2.90;;
44862;SDS011;30597;49.628;10.850;2023-05-07T14:06:35;3.10;;;2.90;;
44862;SDS011;30597;49.628;10.850;2023-05-07T14:09:03;3.77;;;3.10;;
44862;SDS011;30597;49.628;10.850;2023-05-07T14:11:29;3.50;;;3.00;;
44862;SDS011;30597;49.628;10.850;2023-05-07T14:13:54;3.47;;;3.17;;
44862;SDS011;30597;49.628;10.850;2023-05-07T14:16:21;3.30;;;3.10;;
44862;SDS011;30597;49.628;10.850;2023-05-07T14:18:47;2.87;;;2.57;;
44862;SDS011;30597;49.628;10.850;2023-05-07T14:21:12;4.20;;;3.00;;
44862;SDS011;30597;49.628;10.850;2023-05-07T14:23:38;3.07;;;2.87;;
44862;SDS011;30597;49.628;10.850;2023-05-07T14:26:04;3.27;;;3.07;;
44862;SDS011;30597;49.628;10.850;2023-05-07T14:28:30;3.43;;;3.13;;
44862;SDS011;30597;49.628;10.850;2023-05-07T14:30:56;3.90;;;3.60;;
44862;SDS011;30597;49.628;10.850;2023-05-07T14:33:21;3.37;;;3.07;;
44862;SDS011;30597;49.628;10.850;2023-05-07T14:35:47;4.37;;;3.23;;
44862;SDS011;30597;49.628;10.850;2023-05-07T14:38:14;5.60;;;2.93;;
44862;SDS011;30597;49.628;10.850;2023-05-07T14:40:40;5.53;;;3.67;;